createdAt,value
2022-10-19T04:18:31.231Z,101895.03
2022-10-19T04:21:03.998Z,101896.69
2022-10-19T04:23:34.269Z,101894.59
2022-10-19T04:26:03.317Z,101894.97
2022-10-19T04:28:31.043Z,101888.69
2022-10-19T04:31:02.181Z,101878.19
2022-10-19T04:33:29.500Z,101885.22
2022-10-19T04:36:04.659Z,101886.25
2022-10-19T04:38:32.599Z,101887.00
2022-10-19T04:41:11.162Z,101886.59
2022-10-19T04:43:38.864Z,101890.38
2022-10-19T04:46:08.168Z,101891.19
2022-10-19T04:48:37.094Z,101886.22
2022-10-19T04:51:05.383Z,101877.63
2022-10-19T04:53:33.942Z,101882.34
2022-10-19T04:56:05.592Z,101886.16
2022-10-19T04:58:32.983Z,101890.47
2022-10-19T05:01:00.281Z,101889.69
2022-10-19T05:03:27.512Z,101884.34
2022-10-19T05:05:54.935Z,101884.94
2022-10-19T05:08:22.575Z,101884.66
2022-10-19T05:10:50.172Z,101891.84
2022-10-19T05:13:17.649Z,101891.84
2022-10-19T05:15:55.589Z,101887.00
2022-10-19T05:18:24.307Z,101886.66
2022-10-19T05:20:52.167Z,101885.41
2022-10-19T05:23:19.383Z,101886.75
2022-10-19T05:25:46.622Z,101887.59
2022-10-19T05:28:13.840Z,101889.59
2022-10-19T05:30:45.409Z,101886.72
2022-10-19T05:33:15.531Z,101883.78
2022-10-19T05:35:42.788Z,101881.81
2022-10-19T05:38:13.017Z,101876.06
2022-10-19T05:40:48.270Z,101877.13
2022-10-19T05:43:18.037Z,101877.38
2022-10-19T05:45:45.259Z,101873.88
2022-10-19T05:48:13.057Z,101866.19
2022-10-19T05:50:40.295Z,101868.53
2022-10-19T05:53:08.473Z,101872.03
2022-10-19T05:55:36.477Z,101870.31
2022-10-19T05:58:04.273Z,101878.41
2022-10-19T06:00:31.549Z,101879.66
2022-10-19T06:02:59.251Z,101879.34
2022-10-19T06:05:27.093Z,101881.31
2022-10-19T06:07:54.368Z,101881.38
2022-10-19T06:10:21.693Z,101877.13
2022-10-19T06:12:49.208Z,101872.78
2022-10-19T06:15:16.967Z,101880.50
2022-10-19T06:17:44.274Z,101873.78
2022-10-19T06:20:11.912Z,101881.81
2022-10-19T06:22:39.557Z,101884.22
2022-10-19T06:25:07.144Z,101885.44
2022-10-19T06:27:34.635Z,101891.44
2022-10-19T06:30:02.921Z,101895.75
2022-10-19T06:32:30.252Z,101895.34
2022-10-19T06:34:57.460Z,101900.03
2022-10-19T06:37:24.709Z,101903.22
2022-10-19T06:39:53.339Z,101909.09
2022-10-19T06:42:21.079Z,101908.44
2022-10-19T06:44:48.395Z,101902.16
2022-10-19T06:47:16.048Z,101905.84
2022-10-19T06:49:44.262Z,101904.78
2022-10-19T06:52:11.573Z,101902.63
2022-10-19T06:54:39.388Z,101928.16
2022-10-19T06:57:08.016Z,101909.16
2022-10-19T06:59:35.265Z,101914.78
2022-10-19T07:02:02.951Z,101910.59
2022-10-19T07:04:30.275Z,101914.22
2022-10-19T07:06:58.674Z,101916.06
2022-10-19T07:09:26.187Z,101921.75
2022-10-19T07:11:53.505Z,101914.16
2022-10-19T07:14:21.333Z,101913.16
2022-10-19T07:16:49.604Z,101911.09
2022-10-19T07:19:17.633Z,101914.34
2022-10-19T07:21:45.309Z,101910.72
2022-10-19T07:24:12.615Z,101916.88
2022-10-19T07:26:40.397Z,101912.41
2022-10-19T07:29:08.174Z,101917.00
2022-10-19T07:31:35.646Z,101918.63
2022-10-19T07:34:05.682Z,101920.47
2022-10-19T07:36:35.680Z,101927.22
2022-10-19T07:39:06.276Z,101928.25
2022-10-19T07:41:34.748Z,101938.09
2022-10-19T07:44:02.935Z,101939.75
2022-10-19T07:46:37.134Z,101944.19
2022-10-19T07:49:09.703Z,101942.75
2022-10-19T07:51:38.413Z,101940.78
2022-10-19T07:54:07.144Z,101934.59
2022-10-19T07:56:34.842Z,101934.59
2022-10-19T07:59:04.833Z,101938.94
2022-10-19T08:01:36.862Z,101940.13
2022-10-19T08:06:52.009Z,101942.13
2022-10-19T08:09:47.156Z,101945.06
2022-10-19T08:12:07.259Z,101942.84
2022-10-19T08:14:34.620Z,101949.47
2022-10-19T08:17:01.944Z,101944.19
2022-10-19T08:19:30.223Z,101941.22
2022-10-19T08:21:57.968Z,101931.91
2022-10-19T08:24:25.163Z,101931.50
2022-10-19T08:26:52.407Z,101928.28
2022-10-19T08:29:20.829Z,101927.00
2022-10-19T08:31:49.361Z,101925.69
2022-10-19T08:34:17.354Z,101926.75
2022-10-19T08:36:45.166Z,101927.38
2022-10-19T08:39:13.493Z,101931.13
2022-10-19T08:41:41.311Z,101918.22
2022-10-19T08:44:39.250Z,101924.72
2022-10-19T08:47:18.496Z,101917.16
2022-10-19T08:49:48.658Z,101924.00
2022-10-19T08:52:21.299Z,101917.91
2022-10-19T08:54:58.204Z,101913.38
2022-10-19T08:57:53.304Z,101912.94
2022-10-19T09:00:37.486Z,101903.03
2022-10-19T09:03:37.526Z,101901.47
2022-10-19T09:06:20.488Z,101896.19
2022-10-19T09:08:50.400Z,101899.50
2022-10-19T09:11:23.687Z,101903.59
2022-10-19T09:14:04.663Z,101884.38
2022-10-19T09:16:34.743Z,101891.75
2022-10-19T09:19:04.165Z,101888.78
2022-10-19T09:21:55.898Z,101890.22
2022-10-19T09:24:41.916Z,101882.00
2022-10-19T09:27:39.519Z,101891.66
2022-10-19T09:30:16.844Z,101893.72
2022-10-19T09:32:44.421Z,101888.81
2022-10-19T09:35:36.351Z,101886.59
2022-10-19T09:38:05.944Z,101888.22
2022-10-19T09:40:35.189Z,101890.59
2022-10-19T09:43:19.650Z,101890.94
2022-10-19T09:46:19.945Z,101883.56
2022-10-19T09:48:50.862Z,101882.34
2022-10-19T09:51:19.697Z,101887.50
2022-10-19T09:53:52.877Z,101893.41
2022-10-19T09:56:23.152Z,101896.00
2022-10-19T09:58:58.708Z,101890.31
2022-10-19T10:01:41.421Z,101886.22
2022-10-19T10:04:13.929Z,101892.56
2022-10-19T10:06:42.937Z,101890.78
2022-10-19T10:09:22.195Z,101887.00
2022-10-19T10:11:51.886Z,101889.19
2022-10-19T10:14:27.364Z,101881.75
2022-10-19T10:16:56.964Z,101888.59
2022-10-19T10:19:28.673Z,101875.94
2022-10-19T10:21:58.629Z,101873.78
2022-10-19T10:24:29.225Z,101869.94
2022-10-19T10:27:03.662Z,101868.13
2022-10-19T10:29:36.928Z,101872.09
2022-10-19T10:32:08.935Z,101862.94
2022-10-19T10:34:57.323Z,101863.56
2022-10-19T10:37:41.728Z,101857.81
2022-10-19T10:40:25.189Z,101854.38
2022-10-19T10:42:55.155Z,101846.84
2022-10-19T10:45:42.799Z,101854.75
2022-10-19T10:48:53.645Z,101843.91
2022-10-19T10:51:38.563Z,101844.59
2022-10-19T10:54:18.282Z,101835.78
2022-10-19T10:57:06.273Z,101841.66
2022-10-19T10:59:45.764Z,101827.22
2022-10-19T11:05:06.450Z,101826.84
2022-10-19T11:07:36.086Z,101822.94
2022-10-19T11:10:11.761Z,101819.03
2022-10-19T11:12:43.997Z,101822.44
2022-10-19T11:15:21.116Z,101802.91
2022-10-19T11:17:57.482Z,101802.78
2022-10-19T11:20:29.740Z,101790.44
2022-10-19T11:23:19.554Z,101784.50
2022-10-19T11:26:11.216Z,101791.34
2022-10-19T11:28:41.529Z,101783.56
2022-10-19T11:31:29.700Z,101786.44
2022-10-19T11:34:18.629Z,101784.44
2022-10-19T11:36:57.183Z,101783.34
2022-10-19T11:39:25.123Z,101775.88
2022-10-19T11:42:17.599Z,101771.63
2022-10-19T11:45:11.554Z,101765.38
2022-10-19T11:48:02.995Z,101770.03
2022-10-19T11:50:54.252Z,101765.13
2022-10-19T11:53:53.289Z,101760.19
2022-10-19T11:56:44.706Z,101750.06
2022-10-19T11:59:31.993Z,101748.56
2022-10-19T12:02:38.127Z,101744.97
2022-10-19T12:05:09.376Z,101747.69
2022-10-19T12:07:36.543Z,101742.38
2022-10-19T12:10:10.125Z,101741.28
2022-10-19T12:12:44.660Z,101725.41
2022-10-19T12:15:24.188Z,101721.69
2022-10-19T12:17:54.767Z,101720.25
2022-10-19T12:20:29.329Z,101715.91
2022-10-19T12:22:59.777Z,101718.63
2022-10-19T12:25:28.284Z,101710.50
2022-10-19T12:27:57.093Z,101709.81
2022-10-19T12:30:24.917Z,101707.84
2022-10-19T12:32:55.065Z,101699.38
2022-10-19T12:35:34.160Z,101703.13
2022-10-19T12:38:14.972Z,101696.06
2022-10-19T12:41:14.413Z,101689.88
2022-10-19T12:44:11.669Z,101684.84
2022-10-19T12:46:48.421Z,101679.63
2022-10-19T12:49:31.073Z,101670.47
2022-10-19T12:52:01.049Z,101660.66
2022-10-19T12:54:31.815Z,101662.38
2022-10-19T12:57:02.867Z,101654.53
2022-10-19T12:59:37.014Z,101656.50
2022-10-19T13:02:26.271Z,101642.03
2022-10-19T13:04:54.251Z,101650.97
2022-10-19T13:07:21.706Z,101640.06
2022-10-19T13:09:50.376Z,101635.59
2022-10-19T13:12:22.056Z,101642.00
2022-10-19T13:14:54.595Z,101641.69
2022-10-19T13:17:34.707Z,101627.53
2022-10-19T13:20:14.573Z,101620.50
2022-10-19T13:22:45.000Z,101611.59
2022-10-19T13:25:30.765Z,101591.00
2022-10-19T13:28:11.093Z,101587.25
2022-10-19T13:30:38.654Z,101596.13
2022-10-19T13:33:24.766Z,101589.88
2022-10-19T13:36:02.191Z,101589.06
2022-10-19T13:41:09.168Z,101592.94
2022-10-19T13:44:01.104Z,101584.69
2022-10-19T13:46:29.029Z,101580.25
2022-10-19T13:48:59.816Z,101587.00
2022-10-19T13:51:43.227Z,101574.00
2022-10-19T13:54:18.421Z,101569.19
2022-10-19T13:57:10.380Z,101562.78
2022-10-19T14:00:01.878Z,101549.44
2022-10-19T14:02:51.420Z,101561.44
2022-10-19T14:05:22.416Z,101548.63
2022-10-19T14:08:14.975Z,101543.28
2022-10-19T14:11:00.044Z,101589.78
2022-10-19T14:13:29.393Z,101599.09
2022-10-19T14:16:00.203Z,101598.91
2022-10-19T14:18:31.587Z,101602.66
2022-10-19T14:20:58.816Z,101600.13
2022-10-19T14:23:28.116Z,101602.03
2022-10-19T14:26:01.449Z,101593.75
2022-10-19T14:28:29.771Z,101593.59
2022-10-19T14:31:09.264Z,101590.78
2022-10-19T14:33:41.017Z,101589.03
2022-10-19T14:36:16.351Z,101587.16
2022-10-19T14:38:43.829Z,101587.50
2022-10-19T14:41:26.233Z,101574.41
2022-10-19T14:43:56.139Z,101573.19
2022-10-19T14:46:33.941Z,101578.53
2022-10-19T14:49:07.178Z,101580.19
2022-10-19T14:51:46.727Z,101577.50
2022-10-19T14:54:29.025Z,101581.13
2022-10-19T14:57:01.235Z,101574.88
2022-10-19T14:59:46.342Z,101584.25
2022-10-19T15:02:22.859Z,101572.81
2022-10-19T15:04:52.804Z,101572.97
2022-10-19T15:07:40.772Z,101568.09
2022-10-19T15:10:36.422Z,101571.19
2022-10-19T15:13:07.185Z,101559.94
2022-10-19T15:15:40.759Z,101561.53
2022-10-19T15:18:25.316Z,101565.31
2022-10-19T15:21:15.712Z,101550.63
2022-10-19T15:23:46.144Z,101554.25
2022-10-19T15:26:25.714Z,101549.47
2022-10-19T15:28:54.794Z,101542.63
2022-10-19T15:31:28.344Z,101557.22
2022-10-19T15:33:59.089Z,101550.56
2022-10-19T15:36:28.083Z,101554.47
2022-10-19T15:39:06.290Z,101547.06
2022-10-19T15:41:46.376Z,101556.38
2022-10-19T15:44:40.432Z,101556.09
2022-10-19T15:47:19.098Z,101558.09
2022-10-19T15:49:47.010Z,101548.09
2022-10-19T15:52:29.480Z,101557.25
2022-10-19T15:54:59.008Z,101550.84
2022-10-19T15:57:36.090Z,101547.78
2022-10-19T16:00:23.715Z,101558.06
2022-10-19T16:02:51.890Z,101557.94
2022-10-19T16:05:19.572Z,101556.94
2022-10-19T16:07:47.740Z,101554.25
2022-10-19T16:10:20.752Z,101554.13
2022-10-19T16:12:48.475Z,101557.06
2022-10-19T16:15:22.363Z,101562.13
2022-10-19T16:17:54.294Z,101554.22
2022-10-19T16:20:22.946Z,101551.81
2022-10-19T16:22:50.893Z,101553.25
2022-10-19T16:25:18.841Z,101561.41
2022-10-19T16:27:46.634Z,101556.13
2022-10-19T16:30:14.936Z,101559.69
2022-10-19T16:35:14.586Z,101568.00
2022-10-19T16:37:41.872Z,101566.81
2022-10-19T16:40:10.309Z,101565.09
2022-10-19T16:42:38.152Z,101563.66
2022-10-19T16:45:06.201Z,101575.50
2022-10-19T16:47:33.475Z,101573.00
2022-10-19T16:50:02.888Z,101570.44
2022-10-19T16:52:34.427Z,101573.09
2022-10-19T16:55:02.312Z,101579.78
2022-10-19T16:57:29.746Z,101582.72
2022-10-19T16:59:57.428Z,101587.53
2022-10-19T17:02:25.053Z,101593.69
2022-10-19T17:04:52.582Z,101602.50
2022-10-19T17:07:20.555Z,101599.88
2022-10-19T17:09:49.686Z,101596.41
2022-10-19T17:12:19.845Z,101595.94
2022-10-19T17:14:47.225Z,101600.66
2022-10-19T17:17:14.728Z,101602.91
2022-10-19T17:19:42.187Z,101605.44
2022-10-19T17:22:10.043Z,101603.28
2022-10-19T17:24:39.101Z,101599.91
2022-10-19T17:27:07.277Z,101609.06
2022-10-19T17:29:34.656Z,101600.31
2022-10-19T17:32:01.864Z,101598.28
2022-10-19T17:34:29.423Z,101607.66
2022-10-19T17:36:56.986Z,101605.25
2022-10-19T17:39:28.963Z,101603.81
2022-10-19T17:42:03.267Z,101611.38
2022-10-19T17:44:31.706Z,101615.22
2022-10-19T17:47:00.365Z,101619.31
2022-10-19T17:49:30.116Z,101618.13
2022-10-19T17:51:59.021Z,101615.34
2022-10-19T17:54:26.534Z,101620.03
2022-10-19T17:56:54.397Z,101620.13
2022-10-19T17:59:30.302Z,101613.16
2022-10-19T18:02:03.940Z,101621.34
2022-10-19T18:04:31.298Z,101617.56
2022-10-19T18:06:58.580Z,101626.16
2022-10-19T18:09:25.968Z,101623.56
2022-10-19T18:11:54.170Z,101623.56
2022-10-19T18:14:22.687Z,101622.81
2022-10-19T18:16:51.951Z,101622.41
2022-10-19T18:19:19.871Z,101628.13
2022-10-19T18:21:47.774Z,101635.69
2022-10-19T18:24:19.813Z,101637.47
2022-10-19T18:26:48.713Z,101632.88
2022-10-19T18:29:22.938Z,101636.81
2022-10-19T18:31:53.951Z,101637.28
2022-10-19T18:34:24.448Z,101646.47
2022-10-19T18:36:52.800Z,101649.41
2022-10-19T18:39:21.336Z,101658.78
2022-10-19T18:41:55.441Z,101659.47
2022-10-19T18:44:27.113Z,101658.72
2022-10-19T18:46:56.957Z,101655.56
2022-10-19T18:49:25.139Z,101651.91
2022-10-19T18:51:55.358Z,101656.19
2022-10-19T18:54:26.262Z,101656.13
2022-10-19T18:56:54.731Z,101655.50
2022-10-19T18:59:22.555Z,101666.59
2022-10-19T19:01:50.178Z,101654.50
2022-10-19T19:04:18.473Z,101658.78
2022-10-19T19:06:45.826Z,101659.69
2022-10-19T19:09:13.419Z,101664.41
2022-10-19T19:11:42.009Z,101667.16
2022-10-19T19:14:21.076Z,101655.31
2022-10-19T19:16:48.753Z,101657.22
2022-10-19T19:19:18.975Z,101655.78
2022-10-19T19:21:47.381Z,101663.25
2022-10-19T19:24:21.936Z,101649.16
2022-10-19T19:26:53.006Z,101659.09
2022-10-19T19:29:22.373Z,101662.66
2022-10-19T19:31:51.290Z,101658.28
2022-10-19T19:34:18.744Z,101656.81
2022-10-19T19:36:48.413Z,101656.63
2022-10-19T19:39:19.458Z,101659.72
2022-10-19T19:41:48.977Z,101654.69
2022-10-19T19:44:17.398Z,101658.03
2022-10-19T19:46:46.149Z,101663.31
2022-10-19T19:49:14.403Z,101666.19
2022-10-19T19:51:42.395Z,101667.25
2022-10-19T19:54:09.850Z,101683.66
2022-10-19T19:56:37.467Z,101683.53
2022-10-19T19:59:05.101Z,101682.91
2022-10-19T20:01:32.601Z,101685.09
2022-10-19T20:06:36.976Z,101686.19
2022-10-19T20:09:05.626Z,101684.47
2022-10-19T20:11:33.096Z,101688.22
2022-10-19T20:14:00.977Z,101683.59
2022-10-19T20:16:34.265Z,101685.31
2022-10-19T20:19:07.412Z,101686.19
2022-10-19T20:21:34.725Z,101690.25
2022-10-19T20:24:02.629Z,101696.34
2022-10-19T20:26:30.451Z,101695.19
2022-10-19T20:28:58.855Z,101701.00
2022-10-19T20:31:26.409Z,101701.19
2022-10-19T20:33:54.368Z,101706.03
2022-10-19T20:36:24.082Z,101705.16
2022-10-19T20:38:54.367Z,101695.50
2022-10-19T20:41:24.351Z,101696.38
2022-10-19T20:43:53.662Z,101698.44
2022-10-19T20:46:24.796Z,101693.59
2022-10-19T20:48:53.025Z,101693.38
2022-10-19T20:51:24.768Z,101694.38
2022-10-19T20:53:56.591Z,101696.34
2022-10-19T20:56:26.865Z,101702.53
